createdAt,value
2022-12-14T00:09:37.567Z,-4.2
2022-12-14T00:20:34.498Z,-4.2
2022-12-14T00:36:40.667Z,-4
2022-12-14T00:48:27.822Z,-3.8
2022-12-14T00:55:00.078Z,-3.8
2022-12-14T01:00:05.901Z,-3.8
2022-12-14T01:21:48.568Z,-3.7
2022-12-14T01:38:04.564Z,-3.7
2022-12-14T01:51:15.447Z,-3.5
2022-12-14T02:07:19.055Z,-3.5
2022-12-14T02:12:29.082Z,-3.3
2022-12-14T02:23:19.495Z,-3.3
2022-12-14T02:30:30.776Z,-3.3
2022-12-14T02:36:06.271Z,-3.3
2022-12-14T02:41:20.346Z,-3.2
2022-12-14T02:51:53.078Z,-3
2022-12-14T02:57:07.861Z,-2.9
2022-12-14T03:03:56.007Z,-2.9
2022-12-14T03:09:11.767Z,-2.9
2022-12-14T03:19:58.624Z,-2.8
2022-12-14T03:31:01.289Z,-2.8
2022-12-14T03:41:15.868Z,-2.5
2022-12-14T03:46:24.462Z,-2.6
2022-12-14T04:07:49.755Z,-2.2
2022-12-14T04:18:23.656Z,-1.8
2022-12-14T04:23:34.848Z,-1.8
2022-12-14T04:28:46.879Z,-1.5
2022-12-14T04:33:59.743Z,-1.5
2022-12-14T04:39:11.885Z,-1.6
2022-12-14T04:49:49.355Z,-1.8
2022-12-14T04:55:00.690Z,-1.8
2022-12-14T05:00:10.576Z,-1.7
2022-12-14T05:05:26.284Z,-1.7
2022-12-14T05:10:40.248Z,-1.7
2022-12-14T05:15:56.944Z,-1.7
2022-12-14T05:21:07.812Z,-1.2
2022-12-14T05:42:24.130Z,-0.8
2022-12-14T05:47:40.093Z,-0.8
2022-12-14T05:58:16.869Z,-0.8
2022-12-14T06:03:42.909Z,-1.4
2022-12-14T06:08:57.885Z,-1.4
2022-12-14T06:19:33.581Z,-1.4
2022-12-14T06:24:50.096Z,-0.8
2022-12-14T06:31:24.080Z,-0.8
2022-12-14T06:36:31.739Z,-0.8
2022-12-14T06:41:54.879Z,-0.8
2022-12-14T06:47:12.376Z,-0.7
2022-12-14T06:52:32.360Z,-0.7
2022-12-14T06:57:56.776Z,-0.7
2022-12-14T07:03:18.635Z,-0.1
2022-12-14T07:08:28.651Z,-0.1
2022-12-14T07:24:46.084Z,-0.1
2022-12-14T07:37:01.891Z,0.1
2022-12-14T07:45:05.352Z,0.1
2022-12-14T07:50:25.676Z,0.2
2022-12-14T08:02:04.390Z,0.2
2022-12-14T08:07:19.904Z,0.2
2022-12-14T08:12:38.336Z,-0.1
2022-12-14T08:17:50.334Z,0.7
2022-12-14T08:23:01.058Z,0.6
2022-12-14T08:33:38.008Z,0.6
2022-12-14T08:44:10.377Z,0.9
2022-12-14T08:49:33.093Z,0.9
2022-12-14T08:54:44.019Z,0.9
2022-12-14T09:00:03.426Z,0.9
2022-12-14T09:05:10.348Z,0.9
2022-12-14T09:10:25.570Z,0.9
2022-12-14T09:26:19.927Z,1
2022-12-14T09:36:57.806Z,1
2022-12-14T09:42:15.196Z,1
2022-12-14T09:47:28.322Z,1
2022-12-14T09:52:43.863Z,0.6
2022-12-14T09:57:57.394Z,1
2022-12-14T10:03:08.658Z,1.4
2022-12-14T10:08:26.626Z,1.4
2022-12-14T10:13:50.255Z,1.4
2022-12-14T10:29:36.464Z,1.2
2022-12-14T10:40:34.891Z,1.9
2022-12-14T10:56:05.071Z,1.8
2022-12-14T11:06:36.429Z,2.2
2022-12-14T11:11:51.082Z,2.2
2022-12-14T11:17:01.189Z,1.7
2022-12-14T11:22:11.232Z,1.7
2022-12-14T11:27:24.199Z,1.6
2022-12-14T11:32:35.720Z,1.6
2022-12-14T11:37:51.056Z,1.6
2022-12-14T11:43:06.085Z,1.6
2022-12-14T11:48:20.141Z,2.4
2022-12-14T11:53:33.235Z,3.1
2022-12-14T11:58:41.921Z,4
2022-12-14T12:03:59.872Z,4
2022-12-14T12:09:12.618Z,4
2022-12-14T12:14:24.403Z,5
2022-12-14T12:19:41.398Z,6.2
2022-12-14T12:25:35.280Z,8.3
2022-12-14T12:35:26.595Z,7.5
2022-12-14T12:40:36.633Z,6.6
2022-12-14T12:51:08.248Z,5.8
2022-12-14T12:56:18.288Z,5.4
2022-12-14T13:01:29.773Z,5.2
2022-12-14T13:06:40.578Z,4.8
2022-12-14T13:11:52.914Z,4.6
2022-12-14T13:17:04.928Z,4.5
2022-12-14T13:22:15.988Z,4.2
2022-12-14T13:27:28.108Z,4.3
2022-12-14T13:32:38.395Z,4.4
2022-12-14T13:37:49.957Z,4.4
2022-12-14T13:43:02.618Z,4.3
2022-12-14T13:48:14.876Z,4.3
2022-12-14T13:53:26.356Z,4.5
2022-12-14T13:58:43.447Z,4.5
2022-12-14T14:03:55.298Z,3.5
2022-12-14T14:14:27.310Z,3
2022-12-14T14:19:38.049Z,3
2022-12-14T14:24:56.545Z,3
2022-12-14T14:30:06.929Z,3
2022-12-14T14:35:18.883Z,2.9
2022-12-14T14:41:18.988Z,2.9
2022-12-14T14:45:43.361Z,2.9
2022-12-14T14:56:19.951Z,2.9
2022-12-14T15:01:36.468Z,2.9
2022-12-14T15:06:46.918Z,2.8
2022-12-14T15:12:02.120Z,2.8
2022-12-14T15:17:14.550Z,2.6
2022-12-14T15:22:25.693Z,2.6
2022-12-14T15:27:36.883Z,3.1
2022-12-14T15:32:54.442Z,3.1
2022-12-14T15:38:06.715Z,3.4
2022-12-14T15:48:43.821Z,3.4
2022-12-14T15:53:55.355Z,3.7
2022-12-14T16:04:28.997Z,4
2022-12-14T16:15:02.341Z,4.5
2022-12-14T16:30:56.609Z,4.8
2022-12-14T16:46:51.001Z,4.6
2022-12-14T17:02:47.207Z,4.6
2022-12-14T17:08:02.141Z,4.6
2022-12-14T17:18:41.212Z,4.6
2022-12-14T17:23:51.527Z,4.7
2022-12-14T17:29:03.319Z,4.6
2022-12-14T17:34:22.591Z,4.6
2022-12-14T17:39:38.527Z,4.6
2022-12-14T17:50:10.344Z,4.6
2022-12-14T18:06:05.526Z,4.6
2022-12-14T18:11:28.660Z,4.6
2022-12-14T18:16:49.256Z,4.6
2022-12-14T18:22:02.125Z,4.6
2022-12-14T18:27:14.558Z,4.6
2022-12-14T18:32:26.635Z,4.3
2022-12-14T18:37:42.532Z,4.3
2022-12-14T18:43:02.660Z,4.3
2022-12-14T18:48:13.331Z,4.2
2022-12-14T18:53:29.631Z,4.2
2022-12-14T18:58:44.389Z,4.2
2022-12-14T19:03:56.705Z,4.1
2022-12-14T19:25:14.411Z,4.4
2022-12-14T19:30:31.940Z,4.4
2022-12-14T19:41:06.369Z,4.4
2022-12-14T19:46:24.279Z,4.3
2022-12-14T19:51:39.544Z,4.3
2022-12-14T19:56:51.989Z,4.3
2022-12-14T20:02:03.966Z,4
2022-12-14T20:07:17.245Z,4
2022-12-14T20:12:29.683Z,3.7
2022-12-14T20:17:40.770Z,3.8
2022-12-14T20:22:56.134Z,3.8
2022-12-14T20:28:10.832Z,3.8
2022-12-14T20:38:49.568Z,3.6
2022-12-14T20:44:05.066Z,3.6
2022-12-14T20:49:21.304Z,3.6
2022-12-14T20:54:39.738Z,3.9
2022-12-14T20:59:49.513Z,3.7
2022-12-14T21:05:00.075Z,3.7
2022-12-14T21:10:13.414Z,3.7
2022-12-14T21:15:30.288Z,3.7
2022-12-14T21:20:49.496Z,3.7
2022-12-14T21:25:57.816Z,4
2022-12-14T21:31:12.749Z,4
2022-12-14T21:36:24.202Z,4
2022-12-14T21:41:40.441Z,4
2022-12-14T21:46:53.316Z,3.7
2022-12-14T21:52:08.165Z,3.7
2022-12-14T21:57:23.001Z,3.7
2022-12-14T22:02:37.476Z,3.7
2022-12-14T22:07:50.757Z,3.7
2022-12-14T22:13:08.514Z,3.7
2022-12-14T22:18:20.343Z,3
2022-12-14T22:23:45.069Z,3
2022-12-14T22:34:29.465Z,3
2022-12-14T22:39:48.489Z,3
2022-12-14T22:44:53.788Z,2.4
2022-12-14T22:50:36.995Z,2.4
2022-12-14T22:55:50.287Z,2.4
2022-12-14T23:06:21.747Z,2.5
2022-12-14T23:11:36.469Z,2.5
2022-12-14T23:22:18.199Z,2.3
2022-12-14T23:27:32.733Z,2.3
2022-12-14T23:32:45.251Z,2
2022-12-14T23:43:19.766Z,2.3
2022-12-14T23:48:32.044Z,2.4
2022-12-14T23:53:52.673Z,2.4
